sensor_id;sensor_type;location;lat;lon;timestamp;P1;durP1;ratioP1;P2;durP2;ratioP2
21334;SDS011;10826;52.536;13.432;2023-04-01T00:00:23;8.73;;;6.77;;
21334;SDS011;10826;52.536;13.432;2023-04-01T00:03:09;7.70;;;6.03;;
21334;SDS011;10826;52.536;13.432;2023-04-01T00:05:55;10.50;;;7.30;;
21334;SDS011;10826;52.536;13.432;2023-04-01T00:08:43;9.37;;;5.90;;
21334;SDS011;10826;52.536;13.432;2023-04-01T00:11:30;13.77;;;7.00;;
21334;SDS011;10826;52.536;13.432;2023-04-01T00:14:16;8.33;;;6.10;;
21334;SDS011;10826;52.536;13.432;2023-04-01T00:17:02;6.87;;;6.13;;
21334;SDS011;10826;52.536;13.432;2023-04-01T00:19:48;9.37;;;6.10;;
21334;SDS011;10826;52.536;13.432;2023-04-01T00:22:34;9.10;;;6.33;;
21334;SDS011;10826;52.536;13.432;2023-04-01T00:25:20;7.80;;;6.13;;
21334;SDS011;10826;52.536;13.432;2023-04-01T00:28:09;7.93;;;5.80;;
21334;SDS011;10826;52.536;13.432;2023-04-01T00:30:55;12.13;;;5.40;;
21334;SDS011;10826;52.536;13.432;2023-04-01T00:33:41;12.07;;;6.33;;
21334;SDS011;10826;52.536;13.432;2023-04-01T00:36:27;8.53;;;6.07;;
21334;SDS011;10826;52.536;13.432;2023-04-01T00:39:13;8.57;;;6.00;;
21334;SDS011;10826;52.536;13.432;2023-04-01T00:42:00;8.87;;;5.77;;
21334;SDS011;10826;52.536;13.432;2023-04-01T00:44:53;8.17;;;6.00;;
21334;SDS011;10826;52.536;13.432;2023-04-01T00:47:40;6.63;;;5.77;;
21334;SDS011;10826;52.536;13.432;2023-04-01T00:50:26;6.20;;;5.60;;
21334;SDS011;10826;52.536;13.432;2023-04-01T00:53:15;8.40;;;6.00;;
21334;SDS011;10826;52.536;13.432;2023-04-01T00:56:17;8.00;;;5.07;;
21334;SDS011;10826;52.536;13.432;2023-04-01T00:59:13;5.80;;;5.20;;
21334;SDS011;10826;52.536;13.432;2023-04-01T01:02:10;7.53;;;5.70;;
21334;SDS011;10826;52.536;13.432;2023-04-01T01:04:58;9.07;;;5.70;;
21334;SDS011;10826;52.536;13.432;2023-04-01T01:11:06;10.53;;;5.27;;
21334;SDS011;10826;52.536;13.432;2023-04-01T01:14:19;9.73;;;5.70;;
21334;SDS011;10826;52.536;13.432;2023-04-01T01:27:39;6.70;;;4.97;;
21334;SDS011;10826;52.536;13.432;2023-04-01T01:31:22;8.00;;;5.07;;
21334;SDS011;10826;52.536;13.432;2023-04-01T01:34:16;7.67;;;5.37;;
21334;SDS011;10826;52.536;13.432;2023-04-01T01:37:13;9.83;;;5.07;;
21334;SDS011;10826;52.536;13.432;2023-04-01T01:40:04;5.73;;;5.23;;
21334;SDS011;10826;52.536;13.432;2023-04-01T01:42:57;7.67;;;5.60;;
21334;SDS011;10826;52.536;13.432;2023-04-01T01:45:51;8.67;;;5.10;;
21334;SDS011;10826;52.536;13.432;2023-04-01T01:51:44;7.00;;;5.23;;
21334;SDS011;10826;52.536;13.432;2023-04-01T01:54:30;5.80;;;5.20;;
21334;SDS011;10826;52.536;13.432;2023-04-01T01:57:16;10.97;;;6.17;;
21334;SDS011;10826;52.536;13.432;2023-04-01T02:00:07;7.90;;;5.87;;
21334;SDS011;10826;52.536;13.432;2023-04-01T02:02:58;6.57;;;4.97;;
21334;SDS011;10826;52.536;13.432;2023-04-01T02:05:46;7.90;;;5.47;;
21334;SDS011;10826;52.536;13.432;2023-04-01T02:11:48;8.20;;;5.63;;
21334;SDS011;10826;52.536;13.432;2023-04-01T02:14:48;8.47;;;6.00;;
21334;SDS011;10826;52.536;13.432;2023-04-01T02:17:50;9.50;;;5.87;;
21334;SDS011;10826;52.536;13.432;2023-04-01T02:20:37;6.83;;;5.87;;
21334;SDS011;10826;52.536;13.432;2023-04-01T02:23:25;7.23;;;5.57;;
21334;SDS011;10826;52.536;13.432;2023-04-01T02:26:13;8.17;;;5.57;;
21334;SDS011;10826;52.536;13.432;2023-04-01T02:29:00;6.90;;;6.20;;
21334;SDS011;10826;52.536;13.432;2023-04-01T02:31:50;8.30;;;5.93;;
21334;SDS011;10826;52.536;13.432;2023-04-01T02:34:38;10.13;;;6.53;;
21334;SDS011;10826;52.536;13.432;2023-04-01T02:37:35;7.33;;;6.33;;
21334;SDS011;10826;52.536;13.432;2023-04-01T02:40:22;15.60;;;6.93;;
21334;SDS011;10826;52.536;13.432;2023-04-01T02:43:09;14.07;;;7.07;;
21334;SDS011;10826;52.536;13.432;2023-04-01T02:45:55;13.30;;;6.70;;
21334;SDS011;10826;52.536;13.432;2023-04-01T02:48:42;14.13;;;6.47;;
21334;SDS011;10826;52.536;13.432;2023-04-01T02:51:28;9.53;;;7.37;;
21334;SDS011;10826;52.536;13.432;2023-04-01T02:57:12;13.10;;;7.60;;
21334;SDS011;10826;52.536;13.432;2023-04-01T02:59:58;13.00;;;8.40;;
21334;SDS011;10826;52.536;13.432;2023-04-01T03:02:44;11.80;;;7.63;;
21334;SDS011;10826;52.536;13.432;2023-04-01T03:05:31;13.50;;;7.37;;
21334;SDS011;10826;52.536;13.432;2023-04-01T03:08:17;9.80;;;7.03;;
21334;SDS011;10826;52.536;13.432;2023-04-01T03:11:06;11.77;;;7.47;;
21334;SDS011;10826;52.536;13.432;2023-04-01T03:13:52;18.80;;;8.77;;
21334;SDS011;10826;52.536;13.432;2023-04-01T03:16:41;11.43;;;8.33;;
21334;SDS011;10826;52.536;13.432;2023-04-01T03:19:27;11.20;;;6.87;;
21334;SDS011;10826;52.536;13.432;2023-04-01T03:22:13;11.47;;;7.90;;
21334;SDS011;10826;52.536;13.432;2023-04-01T03:25:01;12.33;;;7.47;;
21334;SDS011;10826;52.536;13.432;2023-04-01T03:27:48;9.97;;;7.77;;
21334;SDS011;10826;52.536;13.432;2023-04-01T03:30:34;13.07;;;7.60;;
21334;SDS011;10826;52.536;13.432;2023-04-01T03:33:20;15.73;;;8.60;;
21334;SDS011;10826;52.536;13.432;2023-04-01T03:36:06;11.97;;;8.27;;
21334;SDS011;10826;52.536;13.432;2023-04-01T03:38:53;15.67;;;8.93;;
21334;SDS011;10826;52.536;13.432;2023-04-01T03:41:39;13.43;;;9.50;;
21334;SDS011;10826;52.536;13.432;2023-04-01T03:44:25;19.03;;;7.93;;
21334;SDS011;10826;52.536;13.432;2023-04-01T03:47:14;11.10;;;8.53;;
21334;SDS011;10826;52.536;13.432;2023-04-01T03:50:01;10.63;;;7.70;;
21334;SDS011;10826;52.536;13.432;2023-04-01T03:52:47;11.90;;;8.77;;
21334;SDS011;10826;52.536;13.432;2023-04-01T03:55:35;12.67;;;8.97;;
21334;SDS011;10826;52.536;13.432;2023-04-01T03:58:22;18.87;;;8.70;;
21334;SDS011;10826;52.536;13.432;2023-04-01T04:01:19;17.70;;;8.93;;
21334;SDS011;10826;52.536;13.432;2023-04-01T04:04:07;12.40;;;8.07;;
21334;SDS011;10826;52.536;13.432;2023-04-01T04:06:57;12.30;;;8.50;;
21334;SDS011;10826;52.536;13.432;2023-04-01T04:09:43;16.13;;;8.27;;
21334;SDS011;10826;52.536;13.432;2023-04-01T04:12:29;11.33;;;8.83;;
21334;SDS011;10826;52.536;13.432;2023-04-01T04:15:17;15.07;;;8.67;;
21334;SDS011;10826;52.536;13.432;2023-04-01T04:18:04;10.13;;;7.90;;
21334;SDS011;10826;52.536;13.432;2023-04-01T04:20:50;18.50;;;8.33;;
21334;SDS011;10826;52.536;13.432;2023-04-01T04:23:36;19.03;;;8.67;;
21334;SDS011;10826;52.536;13.432;2023-04-01T04:26:22;21.13;;;9.20;;
21334;SDS011;10826;52.536;13.432;2023-04-01T04:29:08;15.03;;;8.17;;
21334;SDS011;10826;52.536;13.432;2023-04-01T04:31:54;13.07;;;9.13;;
21334;SDS011;10826;52.536;13.432;2023-04-01T04:34:40;18.57;;;8.10;;
21334;SDS011;10826;52.536;13.432;2023-04-01T04:37:26;15.37;;;8.83;;
21334;SDS011;10826;52.536;13.432;2023-04-01T04:40:14;15.23;;;9.00;;
21334;SDS011;10826;52.536;13.432;2023-04-01T04:43:00;18.47;;;10.33;;
21334;SDS011;10826;52.536;13.432;2023-04-01T04:45:46;17.43;;;9.50;;
21334;SDS011;10826;52.536;13.432;2023-04-01T04:48:39;15.93;;;9.10;;
21334;SDS011;10826;52.536;13.432;2023-04-01T04:51:27;17.10;;;9.40;;
21334;SDS011;10826;52.536;13.432;2023-04-01T04:54:13;12.40;;;8.83;;
21334;SDS011;10826;52.536;13.432;2023-04-01T04:56:59;15.57;;;10.43;;
21334;SDS011;10826;52.536;13.432;2023-04-01T04:59:45;20.77;;;9.03;;
21334;SDS011;10826;52.536;13.432;2023-04-01T05:02:31;18.37;;;10.13;;
21334;SDS011;10826;52.536;13.432;2023-04-01T05:05:17;17.17;;;10.47;;
21334;SDS011;10826;52.536;13.432;2023-04-01T05:08:06;20.77;;;10.73;;
21334;SDS011;10826;52.536;13.432;2023-04-01T05:10:52;23.83;;;10.43;;
21334;SDS011;10826;52.536;13.432;2023-04-01T05:13:39;23.10;;;10.43;;
21334;SDS011;10826;52.536;13.432;2023-04-01T05:16:25;23.60;;;10.80;;
21334;SDS011;10826;52.536;13.432;2023-04-01T05:19:13;18.90;;;10.63;;
21334;SDS011;10826;52.536;13.432;2023-04-01T05:21:59;21.77;;;10.60;;
21334;SDS011;10826;52.536;13.432;2023-04-01T05:24:45;26.90;;;10.63;;
21334;SDS011;10826;52.536;13.432;2023-04-01T05:27:37;22.60;;;11.20;;
21334;SDS011;10826;52.536;13.432;2023-04-01T05:30:23;23.50;;;11.17;;
21334;SDS011;10826;52.536;13.432;2023-04-01T05:33:09;19.70;;;10.93;;
21334;SDS011;10826;52.536;13.432;2023-04-01T05:36:05;17.87;;;11.60;;
21334;SDS011;10826;52.536;13.432;2023-04-01T05:39:00;18.93;;;10.87;;
21334;SDS011;10826;52.536;13.432;2023-04-01T05:41:46;23.27;;;12.13;;
21334;SDS011;10826;52.536;13.432;2023-04-01T05:44:32;21.97;;;12.10;;
21334;SDS011;10826;52.536;13.432;2023-04-01T05:47:18;20.70;;;11.93;;
21334;SDS011;10826;52.536;13.432;2023-04-01T05:50:04;20.17;;;11.13;;
21334;SDS011;10826;52.536;13.432;2023-04-01T05:52:53;18.57;;;12.00;;
21334;SDS011;10826;52.536;13.432;2023-04-01T05:55:40;20.47;;;11.07;;
21334;SDS011;10826;52.536;13.432;2023-04-01T05:58:29;24.00;;;11.93;;
21334;SDS011;10826;52.536;13.432;2023-04-01T06:01:15;21.53;;;11.67;;
21334;SDS011;10826;52.536;13.432;2023-04-01T06:04:01;21.37;;;11.30;;
21334;SDS011;10826;52.536;13.432;2023-04-01T06:06:47;18.77;;;12.03;;
21334;SDS011;10826;52.536;13.432;2023-04-01T06:09:33;21.40;;;11.03;;
21334;SDS011;10826;52.536;13.432;2023-04-01T06:12:23;21.90;;;11.20;;
21334;SDS011;10826;52.536;13.432;2023-04-01T06:15:38;18.83;;;11.83;;
21334;SDS011;10826;52.536;13.432;2023-04-01T06:18:50;20.27;;;11.77;;
21334;SDS011;10826;52.536;13.432;2023-04-01T06:29:16;19.93;;;11.33;;
21334;SDS011;10826;52.536;13.432;2023-04-01T06:32:40;13.40;;;9.17;;
21334;SDS011;10826;52.536;13.432;2023-04-01T06:36:10;12.27;;;8.37;;
21334;SDS011;10826;52.536;13.432;2023-04-01T06:39:39;15.37;;;9.17;;
21334;SDS011;10826;52.536;13.432;2023-04-01T06:53:11;18.03;;;9.70;;
21334;SDS011;10826;52.536;13.432;2023-04-01T06:56:12;11.63;;;8.17;;
21334;SDS011;10826;52.536;13.432;2023-04-01T06:59:05;18.10;;;9.23;;
21334;SDS011;10826;52.536;13.432;2023-04-01T07:02:02;23.57;;;8.43;;
21334;SDS011;10826;52.536;13.432;2023-04-01T07:05:29;21.50;;;9.20;;
21334;SDS011;10826;52.536;13.432;2023-04-01T07:08:22;24.93;;;9.43;;
21334;SDS011;10826;52.536;13.432;2023-04-01T07:11:22;22.43;;;9.20;;
21334;SDS011;10826;52.536;13.432;2023-04-01T07:14:19;18.30;;;9.73;;
21334;SDS011;10826;52.536;13.432;2023-04-01T07:17:20;20.60;;;8.80;;
21334;SDS011;10826;52.536;13.432;2023-04-01T07:20:29;13.47;;;7.90;;
21334;SDS011;10826;52.536;13.432;2023-04-01T07:23:28;24.60;;;8.90;;
21334;SDS011;10826;52.536;13.432;2023-04-01T07:26:24;19.20;;;9.73;;
21334;SDS011;10826;52.536;13.432;2023-04-01T07:29:11;26.47;;;10.17;;
21334;SDS011;10826;52.536;13.432;2023-04-01T07:32:14;17.47;;;9.80;;
21334;SDS011;10826;52.536;13.432;2023-04-01T07:35:39;22.50;;;10.40;;
21334;SDS011;10826;52.536;13.432;2023-04-01T07:38:56;27.57;;;10.60;;
21334;SDS011;10826;52.536;13.432;2023-04-01T07:42:41;22.53;;;10.03;;
21334;SDS011;10826;52.536;13.432;2023-04-01T07:45:56;23.50;;;11.03;;
21334;SDS011;10826;52.536;13.432;2023-04-01T07:49:04;19.30;;;10.50;;
21334;SDS011;10826;52.536;13.432;2023-04-01T07:55:20;19.50;;;10.87;;
21334;SDS011;10826;52.536;13.432;2023-04-01T07:58:30;16.70;;;11.20;;
21334;SDS011;10826;52.536;13.432;2023-04-01T08:05:00;17.53;;;10.97;;
21334;SDS011;10826;52.536;13.432;2023-04-01T08:11:21;15.67;;;10.90;;
21334;SDS011;10826;52.536;13.432;2023-04-01T08:18:39;19.43;;;12.83;;
21334;SDS011;10826;52.536;13.432;2023-04-01T08:21:47;16.13;;;11.57;;
21334;SDS011;10826;52.536;13.432;2023-04-01T08:24:40;15.53;;;10.90;;
21334;SDS011;10826;52.536;13.432;2023-04-01T08:27:47;19.27;;;12.73;;
21334;SDS011;10826;52.536;13.432;2023-04-01T08:31:00;18.10;;;11.37;;
21334;SDS011;10826;52.536;13.432;2023-04-01T08:33:49;16.23;;;11.97;;
21334;SDS011;10826;52.536;13.432;2023-04-01T08:36:41;18.27;;;12.23;;
21334;SDS011;10826;52.536;13.432;2023-04-01T08:39:46;12.93;;;10.53;;
21334;SDS011;10826;52.536;13.432;2023-04-01T08:59:09;13.50;;;11.13;;
21334;SDS011;10826;52.536;13.432;2023-04-01T09:02:21;11.33;;;10.23;;
21334;SDS011;10826;52.536;13.432;2023-04-01T09:06:12;12.43;;;10.87;;
21334;SDS011;10826;52.536;13.432;2023-04-01T09:12:47;11.87;;;10.60;;
21334;SDS011;10826;52.536;13.432;2023-04-01T09:19:28;12.83;;;11.53;;
21334;SDS011;10826;52.536;13.432;2023-04-01T09:26:53;12.90;;;10.23;;
21334;SDS011;10826;52.536;13.432;2023-04-01T09:30:28;10.53;;;9.53;;
21334;SDS011;10826;52.536;13.432;2023-04-01T09:37:17;10.60;;;9.60;;
21334;SDS011;10826;52.536;13.432;2023-04-01T09:57:06;11.43;;;10.33;;
21334;SDS011;10826;52.536;13.432;2023-04-01T10:04:08;12.23;;;10.93;;
21334;SDS011;10826;52.536;13.432;2023-04-01T10:11:04;11.40;;;10.30;;
21334;SDS011;10826;52.536;13.432;2023-04-01T10:21:13;10.67;;;9.67;;
21334;SDS011;10826;52.536;13.432;2023-04-01T10:39:03;8.97;;;8.07;;
21334;SDS011;10826;52.536;13.432;2023-04-01T10:48:53;10.07;;;9.10;;
21334;SDS011;10826;52.536;13.432;2023-04-01T11:31:03;9.73;;;8.50;;
21334;SDS011;10826;52.536;13.432;2023-04-01T11:37:20;7.40;;;6.80;;
21334;SDS011;10826;52.536;13.432;2023-04-01T11:50:14;8.60;;;7.90;;
21334;SDS011;10826;52.536;13.432;2023-04-01T12:00:45;10.43;;;9.43;;
21334;SDS011;10826;52.536;13.432;2023-04-01T12:03:46;10.50;;;9.60;;
21334;SDS011;10826;52.536;13.432;2023-04-01T12:11:00;10.60;;;9.50;;
21334;SDS011;10826;52.536;13.432;2023-04-01T12:17:53;12.20;;;9.93;;
21334;SDS011;10826;52.536;13.432;2023-04-01T12:24:47;11.87;;;10.33;;
21334;SDS011;10826;52.536;13.432;2023-04-01T12:31:23;11.80;;;10.53;;
21334;SDS011;10826;52.536;13.432;2023-04-01T12:38:13;12.43;;;11.17;;
21334;SDS011;10826;52.536;13.432;2023-04-01T12:41:27;15.23;;;11.03;;
21334;SDS011;10826;52.536;13.432;2023-04-01T12:44:47;10.33;;;9.40;;
21334;SDS011;10826;52.536;13.432;2023-04-01T12:48:18;11.47;;;10.33;;
21334;SDS011;10826;52.536;13.432;2023-04-01T12:51:15;14.03;;;9.67;;
21334;SDS011;10826;52.536;13.432;2023-04-01T12:54:35;9.60;;;8.60;;
21334;SDS011;10826;52.536;13.432;2023-04-01T13:01:27;9.97;;;9.07;;
21334;SDS011;10826;52.536;13.432;2023-04-01T13:08:11;6.83;;;6.23;;
21334;SDS011;10826;52.536;13.432;2023-04-01T13:11:45;6.27;;;5.67;;
21334;SDS011;10826;52.536;13.432;2023-04-01T13:18:39;5.73;;;4.93;;
21334;SDS011;10826;52.536;13.432;2023-04-01T13:21:55;5.50;;;4.97;;
21334;SDS011;10826;52.536;13.432;2023-04-01T13:28:43;5.00;;;4.57;;
21334;SDS011;10826;52.536;13.432;2023-04-01T13:35:20;6.10;;;5.10;;
21334;SDS011;10826;52.536;13.432;2023-04-01T13:42:09;4.80;;;4.40;;
21334;SDS011;10826;52.536;13.432;2023-04-01T13:48:56;5.20;;;4.30;;
21334;SDS011;10826;52.536;13.432;2023-04-01T13:53:00;5.27;;;4.63;;
21334;SDS011;10826;52.536;13.432;2023-04-01T13:56:04;6.07;;;4.63;;
21334;SDS011;10826;52.536;13.432;2023-04-01T13:59:34;4.70;;;4.30;;
21334;SDS011;10826;52.536;13.432;2023-04-01T14:06:38;6.87;;;4.10;;
21334;SDS011;10826;52.536;13.432;2023-04-01T14:16:54;5.60;;;4.30;;
21334;SDS011;10826;52.536;13.432;2023-04-01T14:23:37;4.60;;;4.13;;
21334;SDS011;10826;52.536;13.432;2023-04-01T14:26:56;6.60;;;4.40;;
21334;SDS011;10826;52.536;13.432;2023-04-01T14:30:42;4.73;;;4.33;;
21334;SDS011;10826;52.536;13.432;2023-04-01T14:37:20;5.20;;;4.70;;
21334;SDS011;10826;52.536;13.432;2023-04-01T14:40:48;4.67;;;4.27;;
21334;SDS011;10826;52.536;13.432;2023-04-01T14:53:26;6.90;;;6.27;;
21334;SDS011;10826;52.536;13.432;2023-04-01T14:56:43;6.20;;;5.70;;
21334;SDS011;10826;52.536;13.432;2023-04-01T14:59:34;6.13;;;5.30;;
21334;SDS011;10826;52.536;13.432;2023-04-01T15:02:33;6.53;;;5.87;;
21334;SDS011;10826;52.536;13.432;2023-04-01T15:12:49;5.10;;;4.60;;
21334;SDS011;10826;52.536;13.432;2023-04-01T15:19:31;7.37;;;5.30;;
21334;SDS011;10826;52.536;13.432;2023-04-01T15:26:32;6.20;;;5.60;;
21334;SDS011;10826;52.536;13.432;2023-04-01T15:36:34;6.47;;;4.50;;
21334;SDS011;10826;52.536;13.432;2023-04-01T15:39:53;5.80;;;5.17;;
21334;SDS011;10826;52.536;13.432;2023-04-01T15:43:07;5.53;;;5.03;;
21334;SDS011;10826;52.536;13.432;2023-04-01T16:02:21;5.23;;;4.73;;
21334;SDS011;10826;52.536;13.432;2023-04-01T16:05:37;6.27;;;5.00;;
21334;SDS011;10826;52.536;13.432;2023-04-01T16:09:06;5.00;;;4.50;;
21334;SDS011;10826;52.536;13.432;2023-04-01T16:12:42;4.70;;;4.40;;
21334;SDS011;10826;52.536;13.432;2023-04-01T16:19:37;5.80;;;4.60;;
21334;SDS011;10826;52.536;13.432;2023-04-01T16:22:38;4.67;;;4.27;;
21334;SDS011;10826;52.536;13.432;2023-04-01T16:25:40;8.17;;;5.13;;
21334;SDS011;10826;52.536;13.432;2023-04-01T16:28:43;7.77;;;4.57;;
21334;SDS011;10826;52.536;13.432;2023-04-01T16:31:48;4.97;;;4.57;;
21334;SDS011;10826;52.536;13.432;2023-04-01T16:34:56;7.13;;;4.47;;
21334;SDS011;10826;52.536;13.432;2023-04-01T16:38:16;6.97;;;4.80;;
21334;SDS011;10826;52.536;13.432;2023-04-01T16:41:28;4.53;;;4.13;;
21334;SDS011;10826;52.536;13.432;2023-04-01T16:44:24;5.70;;;4.60;;
21334;SDS011;10826;52.536;13.432;2023-04-01T16:47:14;4.60;;;4.17;;
21334;SDS011;10826;52.536;13.432;2023-04-01T16:50:14;7.40;;;4.13;;
21334;SDS011;10826;52.536;13.432;2023-04-01T16:53:14;4.67;;;4.20;;
21334;SDS011;10826;52.536;13.432;2023-04-01T16:56:18;4.23;;;3.93;;
21334;SDS011;10826;52.536;13.432;2023-04-01T16:59:18;4.87;;;3.87;;
21334;SDS011;10826;52.536;13.432;2023-04-01T17:02:22;4.27;;;3.87;;
21334;SDS011;10826;52.536;13.432;2023-04-01T17:05:19;4.90;;;3.70;;
21334;SDS011;10826;52.536;13.432;2023-04-01T17:08:43;4.63;;;4.23;;
21334;SDS011;10826;52.536;13.432;2023-04-01T17:12:06;4.43;;;4.03;;
21334;SDS011;10826;52.536;13.432;2023-04-01T17:18:55;4.97;;;4.00;;
21334;SDS011;10826;52.536;13.432;2023-04-01T17:25:43;6.77;;;3.70;;
21334;SDS011;10826;52.536;13.432;2023-04-01T17:32:09;5.50;;;4.10;;
21334;SDS011;10826;52.536;13.432;2023-04-01T17:35:40;4.67;;;4.10;;
21334;SDS011;10826;52.536;13.432;2023-04-01T17:38:50;4.63;;;4.20;;
21334;SDS011;10826;52.536;13.432;2023-04-01T17:42:09;5.20;;;4.40;;
21334;SDS011;10826;52.536;13.432;2023-04-01T17:51:34;8.27;;;5.10;;
21334;SDS011;10826;52.536;13.432;2023-04-01T17:58:08;5.30;;;4.90;;
21334;SDS011;10826;52.536;13.432;2023-04-01T18:01:35;8.47;;;5.53;;
21334;SDS011;10826;52.536;13.432;2023-04-01T18:08:10;8.37;;;5.50;;
21334;SDS011;10826;52.536;13.432;2023-04-01T18:17:25;6.60;;;5.93;;
21334;SDS011;10826;52.536;13.432;2023-04-01T18:23:46;8.33;;;6.03;;
21334;SDS011;10826;52.536;13.432;2023-04-01T18:26:41;7.90;;;5.83;;
21334;SDS011;10826;52.536;13.432;2023-04-01T18:29:45;12.80;;;6.63;;
21334;SDS011;10826;52.536;13.432;2023-04-01T18:33:04;9.27;;;6.57;;
21334;SDS011;10826;52.536;13.432;2023-04-01T18:36:26;8.33;;;6.93;;
21334;SDS011;10826;52.536;13.432;2023-04-01T18:39:42;9.27;;;6.93;;
21334;SDS011;10826;52.536;13.432;2023-04-01T18:46:29;9.37;;;6.93;;
21334;SDS011;10826;52.536;13.432;2023-04-01T18:53:09;12.27;;;8.13;;
21334;SDS011;10826;52.536;13.432;2023-04-01T18:56:28;11.57;;;8.13;;
21334;SDS011;10826;52.536;13.432;2023-04-01T18:59:34;12.90;;;7.73;;
21334;SDS011;10826;52.536;13.432;2023-04-01T19:02:35;12.60;;;7.30;;
21334;SDS011;10826;52.536;13.432;2023-04-01T19:05:34;12.37;;;8.43;;
21334;SDS011;10826;52.536;13.432;2023-04-01T19:08:31;11.03;;;7.07;;
21334;SDS011;10826;52.536;13.432;2023-04-01T19:11:23;12.03;;;8.13;;
21334;SDS011;10826;52.536;13.432;2023-04-01T19:14:30;11.47;;;7.80;;
21334;SDS011;10826;52.536;13.432;2023-04-01T19:17:52;12.13;;;8.10;;
21334;SDS011;10826;52.536;13.432;2023-04-01T19:24:12;13.10;;;8.67;;
21334;SDS011;10826;52.536;13.432;2023-04-01T19:27:58;12.90;;;8.97;;
21334;SDS011;10826;52.536;13.432;2023-04-01T19:30:42;12.23;;;7.93;;
21334;SDS011;10826;52.536;13.432;2023-04-01T19:47:02;13.60;;;7.47;;
21334;SDS011;10826;52.536;13.432;2023-04-01T19:50:14;10.63;;;7.67;;
21334;SDS011;10826;52.536;13.432;2023-04-01T20:00:15;10.00;;;7.13;;
21334;SDS011;10826;52.536;13.432;2023-04-01T20:03:23;11.00;;;7.60;;
21334;SDS011;10826;52.536;13.432;2023-04-01T20:06:28;15.03;;;7.53;;
21334;SDS011;10826;52.536;13.432;2023-04-01T20:09:26;13.23;;;7.63;;
21334;SDS011;10826;52.536;13.432;2023-04-01T20:12:21;12.43;;;8.33;;
21334;SDS011;10826;52.536;13.432;2023-04-01T20:15:35;11.60;;;7.83;;
21334;SDS011;10826;52.536;13.432;2023-04-01T20:18:27;12.93;;;8.73;;
21334;SDS011;10826;52.536;13.432;2023-04-01T20:21:42;11.00;;;8.20;;
21334;SDS011;10826;52.536;13.432;2023-04-01T20:24:37;16.13;;;8.07;;
21334;SDS011;10826;52.536;13.432;2023-04-01T20:27:35;16.80;;;8.57;;
21334;SDS011;10826;52.536;13.432;2023-04-01T20:30:45;16.30;;;8.17;;
21334;SDS011;10826;52.536;13.432;2023-04-01T20:34:00;12.10;;;7.33;;
21334;SDS011;10826;52.536;13.432;2023-04-01T20:37:12;17.27;;;8.10;;
21334;SDS011;10826;52.536;13.432;2023-04-01T20:40:40;11.83;;;7.80;;
21334;SDS011;10826;52.536;13.432;2023-04-01T20:50:28;9.03;;;7.97;;
21334;SDS011;10826;52.536;13.432;2023-04-01T20:53:36;10.47;;;7.30;;
21334;SDS011;10826;52.536;13.432;2023-04-01T20:57:06;16.23;;;7.37;;
21334;SDS011;10826;52.536;13.432;2023-04-01T21:06:44;8.20;;;6.43;;
21334;SDS011;10826;52.536;13.432;2023-04-01T21:13:49;10.40;;;7.00;;
21334;SDS011;10826;52.536;13.432;2023-04-01T21:16:53;12.47;;;7.10;;
21334;SDS011;10826;52.536;13.432;2023-04-01T21:24:23;8.23;;;6.57;;
21334;SDS011;10826;52.536;13.432;2023-04-01T21:27:39;8.77;;;5.80;;
21334;SDS011;10826;52.536;13.432;2023-04-01T21:31:00;8.47;;;5.83;;
21334;SDS011;10826;52.536;13.432;2023-04-01T21:40:53;12.43;;;6.47;;
21334;SDS011;10826;52.536;13.432;2023-04-01T21:51:30;7.63;;;6.80;;
21334;SDS011;10826;52.536;13.432;2023-04-01T22:02:39;7.97;;;6.53;;
21334;SDS011;10826;52.536;13.432;2023-04-01T22:09:13;7.93;;;5.50;;
21334;SDS011;10826;52.536;13.432;2023-04-01T22:12:25;8.97;;;6.47;;
21334;SDS011;10826;52.536;13.432;2023-04-01T22:16:11;11.47;;;5.87;;
21334;SDS011;10826;52.536;13.432;2023-04-01T22:18:42;6.00;;;5.30;;
21334;SDS011;10826;52.536;13.432;2023-04-01T22:25:08;9.30;;;5.20;;
21334;SDS011;10826;52.536;13.432;2023-04-01T22:28:15;7.17;;;5.93;;
21334;SDS011;10826;52.536;13.432;2023-04-01T22:31:09;7.00;;;6.27;;
21334;SDS011;10826;52.536;13.432;2023-04-01T22:37:17;6.63;;;6.03;;
21334;SDS011;10826;52.536;13.432;2023-04-01T22:40:22;9.73;;;5.63;;
21334;SDS011;10826;52.536;13.432;2023-04-01T22:43:38;7.67;;;6.67;;
21334;SDS011;10826;52.536;13.432;2023-04-01T22:46:38;6.73;;;6.10;;
21334;SDS011;10826;52.536;13.432;2023-04-01T22:53:05;9.30;;;6.37;;
21334;SDS011;10826;52.536;13.432;2023-04-01T22:56:37;5.30;;;4.90;;
21334;SDS011;10826;52.536;13.432;2023-04-01T23:06:19;5.60;;;5.10;;
21334;SDS011;10826;52.536;13.432;2023-04-01T23:09:24;4.73;;;4.30;;
21334;SDS011;10826;52.536;13.432;2023-04-01T23:12:14;4.90;;;4.50;;
21334;SDS011;10826;52.536;13.432;2023-04-01T23:15:04;4.73;;;4.30;;
21334;SDS011;10826;52.536;13.432;2023-04-01T23:18:01;9.40;;;4.23;;
21334;SDS011;10826;52.536;13.432;2023-04-01T23:21:03;5.90;;;5.40;;
21334;SDS011;10826;52.536;13.432;2023-04-01T23:27:20;6.77;;;4.47;;
21334;SDS011;10826;52.536;13.432;2023-04-01T23:30:46;5.77;;;4.27;;
21334;SDS011;10826;52.536;13.432;2023-04-01T23:33:36;5.20;;;4.67;;
21334;SDS011;10826;52.536;13.432;2023-04-01T23:36:22;7.67;;;4.43;;
21334;SDS011;10826;52.536;13.432;2023-04-01T23:42:18;4.83;;;4.33;;
21334;SDS011;10826;52.536;13.432;2023-04-01T23:45:15;5.87;;;4.47;;
21334;SDS011;10826;52.536;13.432;2023-04-01T23:48:05;4.20;;;3.90;;
21334;SDS011;10826;52.536;13.432;2023-04-01T23:50:58;5.13;;;4.47;;
21334;SDS011;10826;52.536;13.432;2023-04-01T23:54:30;5.13;;;4.47;;
21334;SDS011;10826;52.536;13.432;2023-04-01T23:57:11;4.70;;;3.90;;
